Joplin, Missouri
Current Conditions -  °F | °C
As of 11:53 PM on Saturday 20 Dec 2014 (Local Time) from KJLN Reporting Station
Overcast Overcast  
Wind Chill: 39°   Ceiling: 2000
Heat Index: 43°   Visibility: 10mi
Dew Point: 36°   Wind: 7mph
Humidity: 76%   Direction: 180°S
Pressure: 30.17"   Gusts: NA
Location:  37.09°N, 94.51°W
Report Text: KJLN 210553Z AUTO 18006KT 10SM OVC020 06/02 A3017 RMK AO2 SLP220 T00610022 10061 20056 400720022 58007 $
Loading
Personal Weather Stations






























Interactive Weather Map New forecast layout! Learn more

10-Day Weather Forecast

Advertisements
Track Severe Weather on mobile